createdAt,value
2022-07-29T00:01:44.659Z,24.86
2022-07-29T00:04:12.386Z,25.03
2022-07-29T00:06:39.038Z,24.41
2022-07-29T00:09:05.903Z,24.87
2022-07-29T00:11:32.291Z,24.33
2022-07-29T00:13:58.710Z,24.38
2022-07-29T00:16:25.147Z,24.46
2022-07-29T00:18:53.866Z,24.51
2022-07-29T00:21:20.426Z,24.76
2022-07-29T00:23:46.854Z,24.61
2022-07-29T00:26:13.262Z,24.21
2022-07-29T00:28:39.712Z,24.15
2022-07-29T00:31:06.387Z,24.59
2022-07-29T00:33:32.901Z,24.40
2022-07-29T00:35:59.324Z,24.52
2022-07-29T00:38:25.788Z,24.49
2022-07-29T00:40:52.222Z,24.39
2022-07-29T00:43:18.808Z,24.26
2022-07-29T00:45:45.655Z,24.19
2022-07-29T00:48:12.261Z,23.58
2022-07-29T00:50:38.875Z,23.45
2022-07-29T00:53:08.108Z,24.04
2022-07-29T00:55:35.518Z,23.67
2022-07-29T00:58:02.150Z,23.96
2022-07-29T01:00:31.514Z,23.94
2022-07-29T01:02:58.123Z,24.01
2022-07-29T01:05:51.559Z,23.40
2022-07-29T01:08:16.290Z,24.08
2022-07-29T01:10:45.036Z,23.70
2022-07-29T01:13:12.855Z,23.32
2022-07-29T01:15:49.207Z,23.90
2022-07-29T01:18:31.189Z,23.64
2022-07-29T01:21:15.572Z,23.07
2022-07-29T01:24:07.239Z,22.85
2022-07-29T01:26:55.392Z,22.91
2022-07-29T01:29:21.798Z,23.07
2022-07-29T01:31:59.034Z,23.30
2022-07-29T01:34:45.783Z,23.26
2022-07-29T01:37:26.093Z,23.29
2022-07-29T01:39:56.312Z,23.20
2022-07-29T01:42:36.412Z,23.38
2022-07-29T01:45:17.942Z,23.36
2022-07-29T01:47:47.564Z,23.43
2022-07-29T01:50:18.511Z,23.50
2022-07-29T01:52:50.729Z,23.14
2022-07-29T01:55:20.969Z,23.44
2022-07-29T01:57:49.094Z,23.52
2022-07-29T02:00:16.951Z,23.29
2022-07-29T02:02:46.705Z,23.22
2022-07-29T02:05:16.628Z,23.46
2022-07-29T02:07:43.994Z,23.26
2022-07-29T02:10:13.184Z,23.00
2022-07-29T02:12:41.408Z,23.08
2022-07-29T02:15:10.808Z,23.18
2022-07-29T02:17:49.817Z,22.94
2022-07-29T02:20:17.116Z,23.20
2022-07-29T02:22:45.841Z,23.14
2022-07-29T02:25:14.730Z,23.04
2022-07-29T02:27:43.572Z,23.15
2022-07-29T02:30:11.657Z,22.59
2022-07-29T02:32:40.983Z,23.08
2022-07-29T02:35:10.206Z,23.18
2022-07-29T02:37:37.801Z,23.11
2022-07-29T02:40:06.964Z,22.83
2022-07-29T02:42:35.916Z,22.09
2022-07-29T02:45:02.318Z,22.25
2022-07-29T02:47:41.273Z,21.35
2022-07-29T02:50:20.998Z,21.21
2022-07-29T02:52:56.610Z,20.77
2022-07-29T02:55:33.028Z,20.47
2022-07-29T02:58:04.379Z,20.17
2022-07-29T03:00:34.278Z,19.97
2022-07-29T03:03:04.665Z,19.61
2022-07-29T03:05:32.086Z,19.44
2022-07-29T03:08:01.973Z,19.64
2022-07-29T03:10:29.269Z,20.29
2022-07-29T03:12:56.571Z,20.39
2022-07-29T03:15:24.124Z,20.18
2022-07-29T03:17:53.513Z,20.52
2022-07-29T03:20:20.395Z,20.56
2022-07-29T03:22:49.410Z,20.33
2022-07-29T03:25:17.475Z,20.56
2022-07-29T03:27:44.886Z,20.55
2022-07-29T03:30:12.562Z,20.67
2022-07-29T03:32:45.265Z,20.31
2022-07-29T03:35:12.266Z,20.06
2022-07-29T03:37:38.710Z,19.85
2022-07-29T03:40:09.687Z,20.23
2022-07-29T03:42:38.903Z,20.56
2022-07-29T03:45:09.241Z,20.78
2022-07-29T03:47:51.126Z,20.45
2022-07-29T03:50:21.220Z,20.48
2022-07-29T03:52:48.514Z,20.55
2022-07-29T03:55:16.143Z,20.45
2022-07-29T03:57:43.576Z,20.34
2022-07-29T04:00:11.114Z,20.16
2022-07-29T04:02:40.148Z,19.84
2022-07-29T04:05:13.527Z,19.61
2022-07-29T04:07:40.629Z,19.92
2022-07-29T04:10:08.412Z,19.90
2022-07-29T04:12:34.798Z,19.83
2022-07-29T04:15:01.181Z,19.59
2022-07-29T04:17:27.555Z,19.69
2022-07-29T04:19:53.945Z,20.02
2022-07-29T04:22:20.359Z,20.20
2022-07-29T04:24:46.784Z,20.57
2022-07-29T04:27:13.328Z,20.71
2022-07-29T04:29:56.112Z,20.75
2022-07-29T04:32:23.806Z,20.66
2022-07-29T04:34:50.242Z,20.77
2022-07-29T04:37:16.722Z,20.82
2022-07-29T04:39:43.215Z,20.82
2022-07-29T04:42:09.589Z,20.99
2022-07-29T04:44:37.228Z,20.87
2022-07-29T04:47:08.763Z,20.64
2022-07-29T04:49:35.199Z,20.67
2022-07-29T04:52:01.668Z,20.68
2022-07-29T04:54:28.092Z,20.70
2022-07-29T04:56:54.528Z,20.22
2022-07-29T04:59:20.930Z,20.40
2022-07-29T05:01:47.414Z,20.42
2022-07-29T05:04:14.197Z,20.37
2022-07-29T05:06:40.899Z,20.36
2022-07-29T05:09:07.274Z,20.18
2022-07-29T05:11:33.794Z,20.15
2022-07-29T05:14:00.176Z,19.99
2022-07-29T05:16:26.837Z,20.48
2022-07-29T05:18:53.352Z,20.65
2022-07-29T05:21:19.785Z,20.70
2022-07-29T05:23:46.173Z,20.46
2022-07-29T05:26:13.049Z,20.02
2022-07-29T05:28:39.425Z,20.69
2022-07-29T05:31:05.826Z,20.69
2022-07-29T05:33:35.671Z,20.67
2022-07-29T05:36:06.403Z,20.78
2022-07-29T05:38:32.933Z,20.85
2022-07-29T05:41:00.377Z,20.81
2022-07-29T05:43:30.270Z,20.78
2022-07-29T05:45:56.949Z,20.79
2022-07-29T05:48:23.447Z,20.78
2022-07-29T05:50:49.934Z,21.34
2022-07-29T05:53:19.074Z,21.06
2022-07-29T05:55:46.792Z,21.08
2022-07-29T05:58:13.366Z,20.96
2022-07-29T06:00:39.798Z,20.83
2022-07-29T06:03:06.439Z,20.63
2022-07-29T06:05:32.874Z,20.67
2022-07-29T06:07:59.306Z,20.65
2022-07-29T06:10:26.189Z,20.98
2022-07-29T06:12:53.922Z,21.06
2022-07-29T06:15:20.497Z,20.89
2022-07-29T06:17:59.172Z,20.64
2022-07-29T06:20:30.532Z,20.94
2022-07-29T06:22:57.648Z,21.01
2022-07-29T06:25:24.110Z,21.14
2022-07-29T06:27:50.625Z,21.13
2022-07-29T06:30:17.078Z,21.24
2022-07-29T06:32:44.555Z,21.08
2022-07-29T06:35:41.863Z,21.31
2022-07-29T06:37:59.561Z,21.36
2022-07-29T06:40:44.980Z,21.33
2022-07-29T06:43:11.753Z,21.55
2022-07-29T06:45:40.484Z,21.71
2022-07-29T06:48:07.009Z,21.40
2022-07-29T06:50:33.497Z,21.28
2022-07-29T06:52:59.872Z,21.27
2022-07-29T06:55:26.297Z,21.12
2022-07-29T06:57:52.747Z,21.13
2022-07-29T07:00:19.182Z,20.93
2022-07-29T07:02:45.627Z,21.08
2022-07-29T07:05:13.835Z,20.96
2022-07-29T07:07:40.273Z,21.00
2022-07-29T07:10:07.050Z,20.76
2022-07-29T07:12:33.449Z,20.71
2022-07-29T07:14:59.887Z,20.91
2022-07-29T07:17:26.279Z,20.88
2022-07-29T07:19:52.672Z,21.07
2022-07-29T07:22:19.098Z,21.33
2022-07-29T07:24:45.504Z,21.14
2022-07-29T07:27:11.981Z,20.99
2022-07-29T07:29:41.946Z,21.01
2022-07-29T07:32:11.149Z,21.24
2022-07-29T07:34:38.815Z,21.13
2022-07-29T07:37:05.639Z,21.27
2022-07-29T07:39:32.054Z,21.28
2022-07-29T07:41:58.475Z,21.66
2022-07-29T07:44:25.070Z,21.61
2022-07-29T07:46:51.486Z,21.67
2022-07-29T07:49:17.916Z,21.69
2022-07-29T07:51:44.358Z,21.73
2022-07-29T07:54:18.465Z,21.92
2022-07-29T07:56:49.835Z,21.76
2022-07-29T07:59:19.351Z,21.60
2022-07-29T08:01:48.184Z,21.25
2022-07-29T08:04:27.757Z,21.33
2022-07-29T08:06:55.568Z,21.60
2022-07-29T08:09:29.257Z,21.75
2022-07-29T08:11:58.481Z,21.69
2022-07-29T08:14:25.023Z,21.78
2022-07-29T08:16:52.329Z,21.73
2022-07-29T08:19:18.966Z,21.65
2022-07-29T08:21:45.414Z,21.65
2022-07-29T08:24:30.523Z,21.49
2022-07-29T08:26:57.004Z,21.44
2022-07-29T08:29:23.414Z,21.54
2022-07-29T08:31:49.960Z,21.69
2022-07-29T08:34:16.492Z,21.69
2022-07-29T08:36:42.877Z,21.77
2022-07-29T08:39:09.282Z,21.63
2022-07-29T08:41:36.323Z,21.97
2022-07-29T08:44:02.752Z,21.88
2022-07-29T08:46:29.247Z,21.80
2022-07-29T08:48:56.319Z,22.09
2022-07-29T08:51:23.042Z,22.04
2022-07-29T08:53:51.011Z,22.24
2022-07-29T08:56:19.599Z,22.07
2022-07-29T08:58:49.858Z,22.30
2022-07-29T09:01:23.391Z,22.47
2022-07-29T09:04:08.308Z,22.50
2022-07-29T09:06:38.353Z,22.61
2022-07-29T09:09:05.174Z,22.69
2022-07-29T09:11:33.480Z,23.00
2022-07-29T09:14:00.316Z,22.96
2022-07-29T09:16:50.782Z,23.05
2022-07-29T09:19:24.972Z,23.32
2022-07-29T09:22:01.660Z,23.33
2022-07-29T09:24:42.143Z,23.43
2022-07-29T09:27:26.843Z,23.72
2022-07-29T09:30:06.752Z,23.83
2022-07-29T09:32:34.420Z,23.81
2022-07-29T09:35:17.406Z,23.93
2022-07-29T09:37:45.580Z,23.95
2022-07-29T09:40:14.020Z,23.92
2022-07-29T09:42:40.627Z,24.44
2022-07-29T09:45:07.991Z,24.36
2022-07-29T09:47:50.004Z,24.70
2022-07-29T09:50:16.950Z,24.62
2022-07-29T09:52:52.395Z,24.77
2022-07-29T09:55:20.066Z,24.57
2022-07-29T09:57:47.823Z,24.50
2022-07-29T10:00:20.355Z,24.60
2022-07-29T10:02:48.097Z,24.40
2022-07-29T10:05:20.649Z,24.52
2022-07-29T10:07:57.396Z,24.32
2022-07-29T10:10:34.660Z,24.25
2022-07-29T10:13:13.527Z,24.15
2022-07-29T10:15:45.043Z,23.95
2022-07-29T10:18:13.648Z,24.09
2022-07-29T10:20:40.688Z,23.89
2022-07-29T10:23:07.265Z,23.71
2022-07-29T10:25:33.851Z,23.53
2022-07-29T10:28:00.387Z,23.55
2022-07-29T10:30:27.978Z,23.71
2022-07-29T10:33:28.309Z,23.78
2022-07-29T10:36:05.904Z,23.81
2022-07-29T10:38:35.260Z,23.79
2022-07-29T10:41:43.656Z,23.57
2022-07-29T10:44:19.316Z,23.73
2022-07-29T10:46:46.998Z,23.65
2022-07-29T10:49:18.587Z,23.60
2022-07-29T10:51:51.068Z,23.91
2022-07-29T10:54:18.718Z,23.93
2022-07-29T10:56:45.594Z,23.69
2022-07-29T10:59:19.214Z,23.92
2022-07-29T11:01:52.464Z,23.78
2022-07-29T11:04:45.039Z,23.96
2022-07-29T11:07:12.160Z,24.03
2022-07-29T11:09:39.538Z,24.15
2022-07-29T11:12:37.324Z,24.41
2022-07-29T11:15:07.879Z,24.44
2022-07-29T11:17:53.317Z,24.61
2022-07-29T11:20:38.122Z,24.64
2022-07-29T11:23:33.784Z,24.77
2022-07-29T11:26:18.530Z,25.20
2022-07-29T11:28:52.075Z,25.51
2022-07-29T11:31:44.647Z,25.79
2022-07-29T11:34:33.378Z,25.84
2022-07-29T11:37:07.346Z,26.15
2022-07-29T11:39:36.728Z,26.06
2022-07-29T11:42:28.480Z,26.12
2022-07-29T11:45:08.434Z,26.03
2022-07-29T11:47:47.810Z,26.01
2022-07-29T11:50:18.957Z,26.07
2022-07-29T11:52:53.553Z,25.77
2022-07-29T11:55:23.465Z,26.11
2022-07-29T11:58:03.572Z,26.17
2022-07-29T12:00:36.908Z,26.11
2022-07-29T12:03:06.549Z,26.27
2022-07-29T12:05:39.795Z,26.58
2022-07-29T12:08:19.927Z,26.84
2022-07-29T12:10:48.143Z,26.87
2022-07-29T12:13:17.215Z,27.10
2022-07-29T12:15:52.212Z,26.81
2022-07-29T12:18:23.986Z,27.09
2022-07-29T12:21:03.403Z,27.11
2022-07-29T12:23:34.469Z,27.11
2022-07-29T12:26:04.941Z,27.15
2022-07-29T12:28:38.327Z,26.79
2022-07-29T12:31:05.542Z,26.90
2022-07-29T12:33:32.476Z,26.84
2022-07-29T12:36:12.795Z,27.29
2022-07-29T12:38:44.052Z,27.21
2022-07-29T12:41:11.326Z,27.32
2022-07-29T12:43:37.752Z,27.67
2022-07-29T12:46:15.855Z,27.82
2022-07-29T12:48:43.903Z,27.56
2022-07-29T12:51:12.610Z,27.57
2022-07-29T12:53:39.783Z,27.82
2022-07-29T12:56:26.699Z,27.90
2022-07-29T12:58:53.916Z,27.84
2022-07-29T13:01:20.982Z,27.33
2022-07-29T13:03:59.855Z,27.69
2022-07-29T13:06:46.158Z,27.62
2022-07-29T13:09:19.442Z,27.88
2022-07-29T13:11:51.776Z,27.88
2022-07-29T13:14:56.934Z,27.39
2022-07-29T13:17:24.108Z,27.54
2022-07-29T13:19:52.934Z,28.04
2022-07-29T13:22:22.252Z,28.13
2022-07-29T13:24:48.600Z,28.29
2022-07-29T13:27:16.668Z,28.17
2022-07-29T13:29:43.106Z,28.17
2022-07-29T13:32:09.671Z,28.15
2022-07-29T13:34:36.074Z,28.30
2022-07-29T13:37:03.060Z,28.57
2022-07-29T13:39:29.540Z,28.72
2022-07-29T13:41:56.302Z,28.62
2022-07-29T13:44:24.074Z,28.53
2022-07-29T13:46:50.977Z,28.82
2022-07-29T13:49:17.477Z,28.88
2022-07-29T13:51:44.188Z,28.97
2022-07-29T13:54:10.599Z,28.78
2022-07-29T13:56:37.069Z,28.81
2022-07-29T13:59:03.471Z,28.67
2022-07-29T14:01:31.321Z,28.70
2022-07-29T14:03:57.990Z,28.94
2022-07-29T14:06:24.626Z,29.09
2022-07-29T14:08:51.954Z,29.22
2022-07-29T14:11:18.597Z,29.32
2022-07-29T14:13:45.417Z,29.23
2022-07-29T14:16:11.995Z,29.67
2022-07-29T14:18:38.593Z,29.64
2022-07-29T14:21:05.073Z,29.74
2022-07-29T14:23:31.552Z,30.08
2022-07-29T14:25:58.291Z,29.71
2022-07-29T14:28:24.685Z,29.93
2022-07-29T14:30:51.048Z,30.14
2022-07-29T14:33:17.870Z,30.21
2022-07-29T14:35:45.439Z,30.08
2022-07-29T14:38:11.983Z,30.23
2022-07-29T14:40:38.922Z,29.87
2022-07-29T14:43:05.422Z,30.07
2022-07-29T14:45:32.425Z,30.05
2022-07-29T14:47:58.971Z,30.36
2022-07-29T14:50:31.497Z,30.71
2022-07-29T14:52:59.109Z,30.88
2022-07-29T14:55:25.622Z,30.74
2022-07-29T14:57:55.435Z,30.54
2022-07-29T15:00:25.274Z,30.67
2022-07-29T15:03:01.998Z,30.81
2022-07-29T15:05:29.440Z,31.00
2022-07-29T15:07:55.846Z,31.18
2022-07-29T15:10:22.327Z,31.11
2022-07-29T15:12:51.273Z,31.27
2022-07-29T15:15:17.738Z,31.00
2022-07-29T15:17:44.182Z,31.07
2022-07-29T15:20:13.607Z,31.28
2022-07-29T15:22:42.096Z,31.25
2022-07-29T15:25:10.525Z,31.02
2022-07-29T15:27:37.109Z,30.84
2022-07-29T15:30:04.157Z,30.86
2022-07-29T15:32:30.590Z,30.19
2022-07-29T15:34:56.984Z,30.16
2022-07-29T15:37:23.460Z,30.12
2022-07-29T15:39:50.798Z,30.09
2022-07-29T15:42:17.843Z,29.76
2022-07-29T15:44:44.339Z,29.93
2022-07-29T15:47:10.822Z,30.28
2022-07-29T15:49:48.000Z,30.27
2022-07-29T15:52:18.231Z,30.29
2022-07-29T15:54:44.734Z,30.37
2022-07-29T15:57:11.169Z,30.31
2022-07-29T15:59:37.598Z,30.25
2022-07-29T16:02:04.206Z,30.78
2022-07-29T16:04:31.915Z,30.67
2022-07-29T16:06:58.777Z,30.25
2022-07-29T16:09:26.528Z,30.45
2022-07-29T16:11:53.968Z,30.38
2022-07-29T16:14:20.770Z,30.27
2022-07-29T16:16:47.577Z,30.65
2022-07-29T16:19:14.583Z,30.18
2022-07-29T16:21:42.533Z,30.14
2022-07-29T16:24:23.134Z,29.94
2022-07-29T16:30:09.590Z,30.37
2022-07-29T16:32:36.182Z,30.06
2022-07-29T16:35:05.058Z,29.54
2022-07-29T16:37:35.290Z,29.78
2022-07-29T16:40:02.295Z,29.78
2022-07-29T16:42:45.677Z,30.15
2022-07-29T16:45:12.835Z,30.76
2022-07-29T16:47:39.331Z,30.69
2022-07-29T16:50:06.249Z,30.39
2022-07-29T16:52:32.712Z,30.46
2022-07-29T16:54:59.141Z,30.50
2022-07-29T16:57:25.862Z,30.38
2022-07-29T16:59:52.493Z,30.26
2022-07-29T17:02:18.965Z,30.37
2022-07-29T17:04:45.498Z,30.19
2022-07-29T17:07:12.029Z,29.97
2022-07-29T17:09:38.528Z,30.07
2022-07-29T17:12:05.466Z,30.01
2022-07-29T17:14:32.270Z,30.18
2022-07-29T17:17:01.959Z,29.88
2022-07-29T17:19:32.212Z,29.70
2022-07-29T17:22:09.426Z,29.08
2022-07-29T17:24:38.827Z,29.16
2022-07-29T17:27:06.155Z,29.18
2022-07-29T17:29:32.743Z,29.46
2022-07-29T17:31:59.990Z,29.25
2022-07-29T17:34:26.940Z,28.91
2022-07-29T17:36:53.552Z,28.78
2022-07-29T17:39:19.949Z,28.82
2022-07-29T17:41:46.819Z,28.65
2022-07-29T17:44:13.498Z,28.57
2022-07-29T17:46:40.642Z,28.91
2022-07-29T17:49:07.335Z,28.97
2022-07-29T17:51:34.325Z,28.64
2022-07-29T17:54:00.846Z,28.51
2022-07-29T17:56:28.367Z,28.31
2022-07-29T17:58:55.088Z,28.67
2022-07-29T18:01:23.385Z,28.47
2022-07-29T18:03:50.079Z,28.77
2022-07-29T18:06:16.442Z,28.79
2022-07-29T18:08:43.134Z,28.33
2022-07-29T18:11:09.548Z,28.37
2022-07-29T18:13:42.260Z,28.95
2022-07-29T18:16:09.411Z,28.61
2022-07-29T18:18:36.064Z,28.91
2022-07-29T18:21:03.445Z,29.06
2022-07-29T18:23:30.206Z,28.65
2022-07-29T18:25:56.770Z,28.12
2022-07-29T18:28:23.655Z,28.37
2022-07-29T18:30:50.378Z,28.45
2022-07-29T18:33:22.348Z,28.56
2022-07-29T18:35:51.945Z,28.17
2022-07-29T18:38:18.958Z,28.29
2022-07-29T18:40:45.916Z,28.17
2022-07-29T18:43:12.923Z,28.47
2022-07-29T18:45:39.734Z,28.54
2022-07-29T18:48:08.373Z,28.12
2022-07-29T18:50:40.238Z,28.28
2022-07-29T18:53:06.862Z,28.67
2022-07-29T18:55:33.366Z,28.29
2022-07-29T18:58:05.608Z,28.55
2022-07-29T19:00:36.029Z,28.66
2022-07-29T19:03:13.673Z,28.33
2022-07-29T19:05:43.949Z,28.17
2022-07-29T19:08:10.699Z,28.18
2022-07-29T19:10:37.136Z,28.48
2022-07-29T19:13:03.670Z,27.92
2022-07-29T19:15:30.475Z,28.12
2022-07-29T19:18:00.961Z,27.92
2022-07-29T19:20:28.315Z,28.00
2022-07-29T19:22:58.720Z,27.87
2022-07-29T19:25:32.823Z,28.32
2022-07-29T19:28:02.259Z,28.22
2022-07-29T19:30:28.704Z,27.84
2022-07-29T19:32:55.194Z,27.90
2022-07-29T19:35:24.548Z,28.46
2022-07-29T19:37:52.151Z,28.36
2022-07-29T19:40:18.899Z,28.38
2022-07-29T19:42:45.563Z,28.29
2022-07-29T19:45:12.110Z,27.94
2022-07-29T19:47:38.556Z,27.79
2022-07-29T19:50:05.571Z,27.74
2022-07-29T19:52:32.337Z,27.79
2022-07-29T19:54:58.861Z,27.45
2022-07-29T19:57:25.283Z,27.57
2022-07-29T19:59:52.715Z,27.62
2022-07-29T20:02:19.323Z,27.19
2022-07-29T20:04:45.874Z,27.21
2022-07-29T20:07:13.484Z,27.58
2022-07-29T20:09:41.245Z,27.63
2022-07-29T20:12:09.041Z,27.67
2022-07-29T20:14:36.063Z,27.39
2022-07-29T20:17:02.847Z,27.41
2022-07-29T20:19:29.486Z,27.18
2022-07-29T20:21:55.901Z,27.14
2022-07-29T20:24:22.421Z,27.20
2022-07-29T20:26:52.324Z,27.04
2022-07-29T20:29:26.806Z,27.01
2022-07-29T20:31:56.442Z,26.63
2022-07-29T20:34:23.127Z,26.49
2022-07-29T20:36:49.736Z,26.75
2022-07-29T20:39:16.335Z,26.85
2022-07-29T20:41:42.701Z,26.81
2022-07-29T20:44:09.312Z,26.77
2022-07-29T20:46:35.738Z,26.70
2022-07-29T20:49:02.325Z,26.41
2022-07-29T20:51:28.776Z,26.48
2022-07-29T20:53:55.209Z,26.36
2022-07-29T20:56:21.714Z,26.48
2022-07-29T20:58:48.129Z,26.48
2022-07-29T21:01:14.783Z,26.24
2022-07-29T21:03:41.344Z,26.40
2022-07-29T21:06:09.042Z,26.53
2022-07-29T21:08:35.749Z,26.09
2022-07-29T21:11:02.138Z,26.40
2022-07-29T21:13:28.523Z,26.19
2022-07-29T21:15:59.565Z,26.23
2022-07-29T21:18:34.236Z,26.09
2022-07-29T21:21:01.257Z,25.83
2022-07-29T21:23:28.088Z,25.92
2022-07-29T21:25:54.885Z,25.93
2022-07-29T21:28:27.729Z,25.78
2022-07-29T21:30:55.718Z,25.90
2022-07-29T21:33:22.379Z,25.79
2022-07-29T21:36:26.621Z,25.88
2022-07-29T21:38:36.448Z,25.83
2022-07-29T21:41:04.727Z,25.93
2022-07-29T21:43:31.600Z,25.98
2022-07-29T21:46:00.095Z,25.56
2022-07-29T21:48:27.975Z,25.77
2022-07-29T21:50:54.882Z,25.68
2022-07-29T21:53:22.115Z,25.56
2022-07-29T21:55:54.291Z,25.45
2022-07-29T21:58:22.769Z,25.50
2022-07-29T22:00:49.184Z,25.11
2022-07-29T22:03:15.718Z,25.16
2022-07-29T22:05:42.277Z,25.29
2022-07-29T22:08:08.710Z,25.34
2022-07-29T22:10:35.686Z,25.16
2022-07-29T22:13:03.091Z,25.39
2022-07-29T22:15:30.800Z,25.40
2022-07-29T22:17:57.888Z,25.52
2022-07-29T22:20:24.745Z,24.83
2022-07-29T22:22:51.362Z,25.43
2022-07-29T22:25:17.877Z,25.47
2022-07-29T22:27:44.389Z,25.03
2022-07-29T22:30:11.306Z,25.17
2022-07-29T22:32:37.752Z,25.16
2022-07-29T22:35:04.487Z,24.93
2022-07-29T22:37:31.060Z,25.09
2022-07-29T22:39:57.502Z,24.95
2022-07-29T22:42:23.954Z,24.86
2022-07-29T22:44:50.412Z,24.74
2022-07-29T22:47:16.938Z,24.80
2022-07-29T22:49:43.382Z,24.74
2022-07-29T22:52:09.906Z,24.50
2022-07-29T22:54:38.224Z,24.51
2022-07-29T22:57:06.018Z,24.49
2022-07-29T22:59:32.430Z,24.46
2022-07-29T23:01:59.365Z,24.45
2022-07-29T23:04:25.850Z,24.41
2022-07-29T23:06:52.274Z,24.35
2022-07-29T23:09:18.903Z,24.20
2022-07-29T23:11:47.071Z,23.90
2022-07-29T23:14:13.525Z,24.16
2022-07-29T23:16:40.056Z,23.60
2022-07-29T23:19:06.522Z,23.80
2022-07-29T23:21:33.118Z,23.64
2022-07-29T23:23:59.527Z,23.97
2022-07-29T23:26:26.012Z,23.80
2022-07-29T23:28:52.452Z,23.46
2022-07-29T23:31:19.020Z,24.08
2022-07-29T23:33:45.620Z,23.98
2022-07-29T23:36:12.042Z,23.92
2022-07-29T23:38:40.830Z,23.77
2022-07-29T23:41:09.539Z,23.27
2022-07-29T23:43:37.132Z,23.69
2022-07-29T23:46:04.348Z,23.50
2022-07-29T23:48:34.437Z,23.30
2022-07-29T23:51:01.113Z,22.72
2022-07-29T23:53:28.394Z,22.94
2022-07-29T23:55:55.626Z,22.70
2022-07-29T23:58:22.072Z,22.93
